createdAt,value
2023-02-21T00:00:34.568Z,7.80
2023-02-21T00:03:20.058Z,7.80
2023-02-21T00:06:05.470Z,7.80
2023-02-21T00:08:50.742Z,7.90
2023-02-21T00:11:36.055Z,7.80
2023-02-21T00:14:21.683Z,7.80
2023-02-21T00:17:07.066Z,7.80
2023-02-21T00:19:52.473Z,7.80
2023-02-21T00:22:37.886Z,7.70
2023-02-21T00:25:23.905Z,7.70
2023-02-21T00:28:09.233Z,7.70
2023-02-21T00:30:54.721Z,7.80
2023-02-21T00:33:40.249Z,7.70
2023-02-21T00:36:25.977Z,7.70
2023-02-21T00:39:11.344Z,7.70
2023-02-21T00:41:56.669Z,7.70
2023-02-21T00:44:42.120Z,7.70
2023-02-21T00:47:27.417Z,7.70
2023-02-21T00:50:14.370Z,7.70
2023-02-21T00:52:59.950Z,7.70
2023-02-21T00:55:45.187Z,7.60
2023-02-21T00:58:30.640Z,7.70
2023-02-21T01:01:16.970Z,7.70
2023-02-21T01:04:02.591Z,7.60
2023-02-21T01:06:47.997Z,7.60
2023-02-21T01:09:34.457Z,7.60
2023-02-21T01:12:19.874Z,7.60
2023-02-21T01:15:05.296Z,7.60
2023-02-21T01:17:50.598Z,7.60
2023-02-21T01:20:36.000Z,7.60
2023-02-21T01:23:23.086Z,7.60
2023-02-21T01:26:08.507Z,7.60
2023-02-21T01:28:53.895Z,7.60
2023-02-21T01:31:40.568Z,7.70
2023-02-21T01:34:26.470Z,7.60
2023-02-21T01:37:11.768Z,7.70
2023-02-21T01:39:57.568Z,7.70
2023-02-21T01:42:42.930Z,7.70
2023-02-21T01:45:40.337Z,7.70
2023-02-21T01:48:27.223Z,7.70
2023-02-21T01:51:14.949Z,7.70
2023-02-21T01:54:01.933Z,7.70
2023-02-21T01:56:48.531Z,7.80
2023-02-21T01:59:35.448Z,7.80
2023-02-21T02:02:37.083Z,7.80
2023-02-21T02:05:25.746Z,7.70
2023-02-21T02:08:12.482Z,7.80
2023-02-21T02:11:00.228Z,7.80
2023-02-21T02:13:49.172Z,7.80
2023-02-21T02:16:32.152Z,7.80
2023-02-21T02:18:58.941Z,7.70
2023-02-21T02:21:57.038Z,7.80
2023-02-21T02:27:50.430Z,7.70
2023-02-21T02:31:02.180Z,7.70
2023-02-21T02:33:56.868Z,7.70
2023-02-21T02:36:43.872Z,7.70
2023-02-21T02:39:21.659Z,7.80
2023-02-21T02:42:06.648Z,7.80
2023-02-21T02:44:37.703Z,7.80
2023-02-21T02:47:05.560Z,7.80
2023-02-21T02:49:35.950Z,7.80
2023-02-21T02:52:07.825Z,7.80
2023-02-21T02:54:34.889Z,7.80
2023-02-21T02:57:10.679Z,7.80
2023-02-21T02:59:41.866Z,7.80
2023-02-21T03:02:24.779Z,7.80
2023-02-21T03:05:27.833Z,7.80
2023-02-21T03:08:21.527Z,7.80
2023-02-21T03:11:12.140Z,7.80
2023-02-21T03:13:54.259Z,7.90
2023-02-21T03:16:54.447Z,7.90
2023-02-21T03:19:27.804Z,7.90
2023-02-21T03:21:59.743Z,7.90
2023-02-21T03:24:28.474Z,7.80
2023-02-21T03:27:03.453Z,7.90
2023-02-21T03:30:02.849Z,7.90
2023-02-21T03:32:51.915Z,7.80
2023-02-21T03:35:21.287Z,7.80
2023-02-21T03:37:52.164Z,7.80
2023-02-21T03:40:26.066Z,7.80
2023-02-21T03:42:54.814Z,7.80
2023-02-21T03:45:22.524Z,7.80
2023-02-21T03:48:08.898Z,7.80
2023-02-21T03:50:37.404Z,7.80
2023-02-21T03:53:04.696Z,7.80
2023-02-21T03:55:33.004Z,7.80
2023-02-21T03:58:03.825Z,7.80
2023-02-21T04:00:32.843Z,7.80
2023-02-21T04:03:00.053Z,7.70
2023-02-21T04:05:37.247Z,7.80
2023-02-21T04:08:04.384Z,7.80
2023-02-21T04:10:35.766Z,7.80
2023-02-21T04:13:07.374Z,7.80
2023-02-21T04:15:39.831Z,7.80
2023-02-21T04:18:06.779Z,7.80
2023-02-21T04:20:33.683Z,7.80
2023-02-21T04:23:03.779Z,7.80
2023-02-21T04:25:32.017Z,7.70
2023-02-21T04:28:03.950Z,7.70
2023-02-21T04:30:31.374Z,7.70
2023-02-21T04:32:58.328Z,7.70
2023-02-21T04:35:25.888Z,7.60
2023-02-21T04:37:54.157Z,7.60
2023-02-21T04:40:21.228Z,7.60
2023-02-21T04:42:48.045Z,7.60
2023-02-21T04:45:14.920Z,7.60
2023-02-21T04:47:41.700Z,7.50
2023-02-21T04:50:08.922Z,7.50
2023-02-21T04:52:35.701Z,7.50
2023-02-21T04:55:02.498Z,7.40
2023-02-21T04:57:29.294Z,7.40
2023-02-21T04:59:58.487Z,7.40
2023-02-21T05:02:25.660Z,7.50
2023-02-21T05:04:52.632Z,7.50
2023-02-21T05:07:19.793Z,7.40
2023-02-21T05:09:46.610Z,7.40
2023-02-21T05:12:13.713Z,7.40
2023-02-21T05:14:41.806Z,7.30
2023-02-21T05:17:08.781Z,7.40
2023-02-21T05:19:35.844Z,7.30
2023-02-21T05:22:06.521Z,7.30
2023-02-21T05:24:34.372Z,7.40
2023-02-21T05:27:01.512Z,7.40
2023-02-21T05:29:28.456Z,7.50
2023-02-21T05:31:55.462Z,7.40
2023-02-21T05:34:22.408Z,7.40
2023-02-21T05:36:49.277Z,7.40
2023-02-21T05:39:16.240Z,7.50
2023-02-21T05:41:50.323Z,7.40
2023-02-21T05:44:18.197Z,7.50
2023-02-21T05:46:46.225Z,7.50
2023-02-21T05:49:13.675Z,7.60
2023-02-21T05:51:43.721Z,7.50
2023-02-21T05:54:15.718Z,7.50
2023-02-21T05:56:44.054Z,7.50
2023-02-21T05:59:12.168Z,7.50
2023-02-21T06:01:39.986Z,7.50
2023-02-21T06:04:07.680Z,7.50
2023-02-21T06:06:35.322Z,7.50
2023-02-21T06:09:02.305Z,7.50
2023-02-21T06:11:33.190Z,7.50
2023-02-21T06:14:03.503Z,7.50
2023-02-21T06:16:37.972Z,7.50
2023-02-21T06:19:06.878Z,7.50
2023-02-21T06:21:35.538Z,7.50
2023-02-21T06:24:03.480Z,7.50
2023-02-21T06:26:30.645Z,7.40
2023-02-21T06:28:57.489Z,7.50
2023-02-21T06:31:24.666Z,7.50
2023-02-21T06:33:52.376Z,7.50
2023-02-21T06:36:22.489Z,7.50
2023-02-21T06:38:51.276Z,7.50
2023-02-21T06:41:21.250Z,7.50
2023-02-21T06:43:49.483Z,7.40
2023-02-21T06:46:24.853Z,7.40
2023-02-21T06:48:52.367Z,7.40
2023-02-21T06:51:19.762Z,7.40
2023-02-21T06:53:50.204Z,7.40
2023-02-21T06:56:17.124Z,7.40
2023-02-21T06:58:43.890Z,7.40
2023-02-21T07:01:10.796Z,7.40
2023-02-21T07:03:43.124Z,7.40
2023-02-21T07:06:10.459Z,7.40
2023-02-21T07:08:37.416Z,7.40
2023-02-21T07:11:05.716Z,7.40
2023-02-21T07:13:33.749Z,7.40
2023-02-21T07:16:03.230Z,7.40
2023-02-21T07:18:30.083Z,7.40
2023-02-21T07:20:57.225Z,7.40
2023-02-21T07:23:24.269Z,7.50
2023-02-21T07:25:51.165Z,7.50
2023-02-21T07:28:18.461Z,7.40
2023-02-21T07:30:45.347Z,7.40
2023-02-21T07:33:12.155Z,7.40
2023-02-21T07:35:39.049Z,7.50
2023-02-21T07:38:05.862Z,7.50
2023-02-21T07:40:32.715Z,7.50
2023-02-21T07:42:59.561Z,7.50
2023-02-21T07:45:27.624Z,7.50
2023-02-21T07:47:54.409Z,7.50
2023-02-21T07:50:23.644Z,7.50
2023-02-21T07:52:50.481Z,7.50
2023-02-21T07:55:17.424Z,7.50
2023-02-21T07:57:44.822Z,7.60
2023-02-21T08:00:12.166Z,7.50
2023-02-21T08:02:41.561Z,7.50
2023-02-21T08:05:10.145Z,7.50
2023-02-21T08:07:37.053Z,7.50
2023-02-21T08:10:04.729Z,7.50
2023-02-21T08:12:31.593Z,7.60
2023-02-21T08:14:58.609Z,7.60
2023-02-21T08:17:25.784Z,7.60
2023-02-21T08:19:52.889Z,7.50
2023-02-21T08:22:19.993Z,7.60
2023-02-21T08:24:50.003Z,7.50
2023-02-21T08:27:17.678Z,7.60
2023-02-21T08:29:44.849Z,7.60
2023-02-21T08:32:11.623Z,7.60
2023-02-21T08:34:38.596Z,7.60
2023-02-21T08:37:20.021Z,7.60
2023-02-21T08:39:48.002Z,7.60
2023-02-21T08:42:14.973Z,7.60
2023-02-21T08:44:46.459Z,7.50
2023-02-21T08:47:15.382Z,7.50
2023-02-21T08:49:47.346Z,7.50
2023-02-21T08:52:18.867Z,7.50
2023-02-21T08:54:46.008Z,7.50
2023-02-21T08:57:13.361Z,7.50
2023-02-21T08:59:42.632Z,7.50
2023-02-21T09:02:22.171Z,7.50
2023-02-21T09:04:49.174Z,7.50
2023-02-21T09:07:17.991Z,7.50
2023-02-21T09:09:44.900Z,7.40
2023-02-21T09:12:12.282Z,7.40
2023-02-21T09:14:41.504Z,7.60
2023-02-21T09:17:12.288Z,7.40
2023-02-21T09:19:40.179Z,7.40
2023-02-21T09:22:08.277Z,7.40
2023-02-21T09:24:35.357Z,7.40
2023-02-21T09:27:05.486Z,7.40
2023-02-21T09:29:44.872Z,7.40
2023-02-21T09:32:12.222Z,7.40
2023-02-21T09:34:39.723Z,7.40
2023-02-21T09:37:06.987Z,7.50
2023-02-21T09:39:33.880Z,7.50
2023-02-21T09:42:00.790Z,7.50
2023-02-21T09:44:29.433Z,7.50
2023-02-21T09:47:01.473Z,7.50
2023-02-21T09:49:41.471Z,7.50
2023-02-21T09:52:22.385Z,7.50
2023-02-21T09:54:54.509Z,7.50
2023-02-21T09:57:21.331Z,7.50
2023-02-21T09:59:49.328Z,7.50
2023-02-21T10:02:48.008Z,7.60
2023-02-21T10:05:53.356Z,7.50
2023-02-21T10:08:37.264Z,7.50
2023-02-21T10:11:31.390Z,7.50
2023-02-21T10:14:26.126Z,7.50
2023-02-21T10:17:20.829Z,7.60
2023-02-21T10:19:54.024Z,7.60
2023-02-21T10:22:25.215Z,7.60
2023-02-21T10:24:52.932Z,7.60
2023-02-21T10:27:22.747Z,7.60
2023-02-21T10:30:05.790Z,7.60
2023-02-21T10:32:33.288Z,7.60
2023-02-21T10:35:00.318Z,7.70
2023-02-21T10:37:36.331Z,7.80
2023-02-21T10:40:32.668Z,7.80
2023-02-21T10:43:32.840Z,7.80
2023-02-21T10:46:11.273Z,7.90
2023-02-21T10:48:40.741Z,7.90
2023-02-21T10:51:16.966Z,8.00
2023-02-21T10:53:46.580Z,8.00
2023-02-21T10:56:19.099Z,8.10
2023-02-21T10:58:56.724Z,8.10
2023-02-21T11:01:26.433Z,8.20
2023-02-21T11:03:56.867Z,8.20
2023-02-21T11:06:35.176Z,8.20
2023-02-21T11:09:03.471Z,8.30
2023-02-21T11:11:39.816Z,8.40
2023-02-21T11:14:19.124Z,8.40
2023-02-21T11:16:45.982Z,8.50
2023-02-21T11:19:14.526Z,8.50
2023-02-21T11:21:45.284Z,8.60
2023-02-21T11:24:13.188Z,8.70
2023-02-21T11:26:49.069Z,8.70
2023-02-21T11:29:21.126Z,8.80
2023-02-21T11:31:48.377Z,8.70
2023-02-21T11:34:16.964Z,8.90
2023-02-21T11:36:45.507Z,8.90
2023-02-21T11:39:27.770Z,9.00
2023-02-21T11:42:00.328Z,9.10
2023-02-21T11:44:41.164Z,9.20
2023-02-21T11:47:21.634Z,9.20
2023-02-21T11:50:09.959Z,9.20
2023-02-21T11:52:52.597Z,9.20
2023-02-21T11:55:26.155Z,9.30
2023-02-21T11:58:11.442Z,9.30
2023-02-21T12:01:01.838Z,9.30
2023-02-21T12:03:54.281Z,9.30
2023-02-21T12:06:55.356Z,9.20
2023-02-21T12:09:37.081Z,9.30
2023-02-21T12:12:46.316Z,9.30
2023-02-21T12:15:48.746Z,9.30
2023-02-21T12:18:30.622Z,9.30
2023-02-21T12:21:17.378Z,9.30
2023-02-21T12:23:44.447Z,9.30
2023-02-21T12:26:29.957Z,9.30
2023-02-21T12:29:14.684Z,9.40
2023-02-21T12:32:08.325Z,9.50
2023-02-21T12:35:12.962Z,9.70
2023-02-21T12:37:49.383Z,9.70
2023-02-21T12:40:16.262Z,9.80
2023-02-21T12:43:04.595Z,9.80
2023-02-21T12:46:03.630Z,9.80
2023-02-21T12:48:38.162Z,9.90
2023-02-21T12:51:20.268Z,9.80
2023-02-21T12:53:53.566Z,9.70
2023-02-21T12:57:01.948Z,9.70
2023-02-21T13:00:17.390Z,9.70
2023-02-21T13:03:05.974Z,9.70
2023-02-21T13:05:42.431Z,9.90
2023-02-21T13:08:20.697Z,9.90
2023-02-21T13:10:53.595Z,9.90
2023-02-21T13:13:27.002Z,10.00
2023-02-21T13:15:54.797Z,10.00
2023-02-21T13:18:24.476Z,10.00
2023-02-21T13:21:00.102Z,10.10
2023-02-21T13:23:51.546Z,10.10
2023-02-21T13:26:53.249Z,10.20
2023-02-21T13:29:24.658Z,10.20
2023-02-21T13:32:20.176Z,10.20
2023-02-21T13:34:54.556Z,10.20
2023-02-21T13:37:28.529Z,10.10
2023-02-21T13:40:07.608Z,10.10
2023-02-21T13:42:39.481Z,10.00
2023-02-21T13:45:15.501Z,10.00
2023-02-21T13:47:57.388Z,9.90
2023-02-21T13:50:39.582Z,9.90
2023-02-21T13:53:09.470Z,9.90
2023-02-21T13:55:37.126Z,9.90
2023-02-21T13:58:05.276Z,9.70
2023-02-21T14:00:32.139Z,9.80
2023-02-21T14:03:09.592Z,9.80
2023-02-21T14:05:51.865Z,9.80
2023-02-21T14:08:18.662Z,9.90
2023-02-21T14:10:50.310Z,9.80
2023-02-21T14:13:23.343Z,9.90
2023-02-21T14:16:00.400Z,9.80
2023-02-21T14:18:32.041Z,9.80
2023-02-21T14:20:59.812Z,9.90
2023-02-21T14:23:48.262Z,9.90
2023-02-21T14:27:01.643Z,9.90
2023-02-21T14:29:37.501Z,9.90
2023-02-21T14:32:04.726Z,9.80
2023-02-21T14:34:49.941Z,9.80
2023-02-21T14:37:22.968Z,9.80
2023-02-21T14:39:56.312Z,9.80
2023-02-21T14:42:37.888Z,9.80
2023-02-21T14:45:10.610Z,9.80
2023-02-21T14:47:46.675Z,9.80
2023-02-21T14:50:21.032Z,9.80
2023-02-21T14:53:03.623Z,9.80
2023-02-21T14:55:52.492Z,9.80
2023-02-21T14:58:34.460Z,9.80
2023-02-21T15:01:16.242Z,9.80
2023-02-21T15:04:08.988Z,9.80
2023-02-21T15:06:39.682Z,9.80
2023-02-21T15:09:18.459Z,9.80
2023-02-21T15:11:47.256Z,9.70
2023-02-21T15:14:24.989Z,9.70
2023-02-21T15:16:58.192Z,9.70
2023-02-21T15:19:29.612Z,9.80
2023-02-21T15:22:25.872Z,9.70
2023-02-21T15:25:15.385Z,9.70
2023-02-21T15:27:45.050Z,9.70
2023-02-21T15:30:22.389Z,9.70
2023-02-21T15:32:57.587Z,9.70
2023-02-21T15:35:31.088Z,9.70
2023-02-21T15:38:00.115Z,9.70
2023-02-21T15:40:28.022Z,9.70
2023-02-21T15:42:55.432Z,9.70
2023-02-21T15:45:45.536Z,9.70
2023-02-21T15:48:12.923Z,9.70
2023-02-21T15:50:43.932Z,9.70
2023-02-21T15:53:22.708Z,9.70
2023-02-21T15:55:53.286Z,9.70
2023-02-21T15:58:26.988Z,9.70
2023-02-21T16:01:08.208Z,9.70
2023-02-21T16:03:42.792Z,9.80
2023-02-21T16:06:28.074Z,9.70
2023-02-21T16:09:06.686Z,9.60
2023-02-21T16:11:55.030Z,9.60
2023-02-21T16:14:36.618Z,9.60
2023-02-21T16:17:24.993Z,9.60
2023-02-21T16:19:56.407Z,9.60
2023-02-21T16:22:54.124Z,9.60
2023-02-21T16:25:25.371Z,9.60
2023-02-21T16:27:57.384Z,9.60
2023-02-21T16:30:27.787Z,9.60
2023-02-21T16:33:03.492Z,9.60
2023-02-21T16:35:31.675Z,9.60
2023-02-21T16:38:00.320Z,9.50
2023-02-21T16:40:35.310Z,9.50
2023-02-21T16:43:04.589Z,9.50
2023-02-21T16:45:32.306Z,9.50
2023-02-21T16:48:06.711Z,9.50
2023-02-21T16:50:39.980Z,9.50
2023-02-21T16:53:10.377Z,9.50
2023-02-21T16:55:37.155Z,9.50
2023-02-21T16:58:07.451Z,9.50
2023-02-21T17:00:34.901Z,9.50
2023-02-21T17:03:01.857Z,9.40
2023-02-21T17:05:29.276Z,9.40
2023-02-21T17:07:58.477Z,9.40
2023-02-21T17:10:25.608Z,9.40
2023-02-21T17:12:52.430Z,9.40
2023-02-21T17:15:21.617Z,9.40
2023-02-21T17:17:53.246Z,9.40
2023-02-21T17:20:21.845Z,9.40
2023-02-21T17:22:49.147Z,9.40
2023-02-21T17:25:16.691Z,9.40
2023-02-21T17:27:43.906Z,9.40
2023-02-21T17:30:12.905Z,9.40
2023-02-21T17:32:39.928Z,9.40
2023-02-21T17:35:07.194Z,9.30
2023-02-21T17:37:33.964Z,9.40
2023-02-21T17:40:00.780Z,9.20
2023-02-21T17:42:27.572Z,9.20
2023-02-21T17:44:54.496Z,9.30
2023-02-21T17:47:23.284Z,9.20
2023-02-21T17:49:51.292Z,9.20
2023-02-21T17:52:18.521Z,9.30
2023-02-21T17:54:45.375Z,9.20
2023-02-21T17:57:12.579Z,9.20
2023-02-21T17:59:39.989Z,9.20
2023-02-21T18:02:08.093Z,9.20
2023-02-21T18:04:35.237Z,9.20
2023-02-21T18:07:02.191Z,9.20
2023-02-21T18:09:30.602Z,9.20
2023-02-21T18:11:58.734Z,9.10
2023-02-21T18:14:30.131Z,9.20
2023-02-21T18:16:58.151Z,9.10
2023-02-21T18:19:25.575Z,9.10
2023-02-21T18:21:52.991Z,9.10
2023-02-21T18:24:21.471Z,9.10
2023-02-21T18:26:48.361Z,9.10
2023-02-21T18:29:15.279Z,9.10
2023-02-21T18:31:42.214Z,9.10
2023-02-21T18:34:09.510Z,9.10
2023-02-21T18:36:36.349Z,9.10
2023-02-21T18:39:03.308Z,9.00
2023-02-21T18:41:33.219Z,9.10
2023-02-21T18:44:00.143Z,9.10
2023-02-21T18:46:26.983Z,9.10
2023-02-21T18:48:53.770Z,9.00
2023-02-21T18:51:20.942Z,9.00
2023-02-21T18:53:49.250Z,9.00
2023-02-21T18:56:19.318Z,8.90
2023-02-21T18:58:47.675Z,9.00
2023-02-21T19:01:18.601Z,9.00
2023-02-21T19:03:45.749Z,9.00
2023-02-21T19:06:15.675Z,9.00
2023-02-21T19:08:42.618Z,9.00
2023-02-21T19:11:09.680Z,9.00
2023-02-21T19:13:36.537Z,9.00
2023-02-21T19:16:03.436Z,9.00
2023-02-21T19:18:31.448Z,8.90
2023-02-21T19:20:58.488Z,8.90
2023-02-21T19:23:27.532Z,8.90
2023-02-21T19:25:55.388Z,8.90
2023-02-21T19:28:23.936Z,8.90
2023-02-21T19:30:50.941Z,8.90
2023-02-21T19:33:17.872Z,8.90
2023-02-21T19:35:45.750Z,8.90
2023-02-21T19:38:12.728Z,8.80
2023-02-21T19:40:39.697Z,8.80
2023-02-21T19:43:06.702Z,8.80
2023-02-21T19:45:33.770Z,8.80
2023-02-21T19:48:00.712Z,8.80
2023-02-21T19:50:27.606Z,8.80
2023-02-21T19:52:58.901Z,8.70
2023-02-21T19:55:28.957Z,8.80
2023-02-21T19:57:56.006Z,8.80
2023-02-21T20:00:26.378Z,8.70
2023-02-21T20:02:54.220Z,8.70
2023-02-21T20:05:21.895Z,8.70
2023-02-21T20:07:48.830Z,8.70
2023-02-21T20:10:18.076Z,8.70
2023-02-21T20:12:45.198Z,8.60
2023-02-21T20:15:12.153Z,8.60
2023-02-21T20:17:39.236Z,8.60
2023-02-21T20:20:12.492Z,8.60
2023-02-21T20:22:39.650Z,8.60
2023-02-21T20:25:07.449Z,8.60
2023-02-21T20:27:34.634Z,8.60
2023-02-21T20:30:01.628Z,8.50
2023-02-21T20:32:28.547Z,8.60
2023-02-21T20:34:56.799Z,8.60
2023-02-21T20:37:24.297Z,8.60
2023-02-21T20:39:51.481Z,8.60
2023-02-21T20:42:20.248Z,8.60
2023-02-21T20:44:48.177Z,8.50
2023-02-21T20:47:15.280Z,8.50
2023-02-21T20:49:46.461Z,8.40
2023-02-21T20:52:14.557Z,8.50
2023-02-21T20:54:42.131Z,8.50
2023-02-21T20:57:09.713Z,8.50
2023-02-21T20:59:38.926Z,8.50
2023-02-21T21:02:08.004Z,8.50
2023-02-21T21:04:38.386Z,8.50
2023-02-21T21:07:09.129Z,8.50
2023-02-21T21:09:37.578Z,8.50
2023-02-21T21:12:07.839Z,8.50
2023-02-21T21:14:39.442Z,8.50
2023-02-21T21:17:06.750Z,8.50
2023-02-21T21:19:34.354Z,8.50
2023-02-21T21:22:03.034Z,8.40
2023-02-21T21:24:31.752Z,8.50
2023-02-21T21:27:06.211Z,8.50
2023-02-21T21:29:36.393Z,8.40
2023-02-21T21:32:05.345Z,8.40
2023-02-21T21:34:33.165Z,8.40
2023-02-21T21:37:02.068Z,8.40
2023-02-21T21:39:30.420Z,8.50
2023-02-21T21:41:59.967Z,8.50
2023-02-21T21:44:27.211Z,8.40
2023-02-21T21:46:54.501Z,8.40
2023-02-21T21:49:23.061Z,8.30
2023-02-21T21:51:49.936Z,8.40
2023-02-21T21:54:20.664Z,8.40
2023-02-21T21:56:48.582Z,8.40
2023-02-21T21:59:20.271Z,8.40
2023-02-21T22:01:48.136Z,8.40
2023-02-21T22:04:15.119Z,8.30
2023-02-21T22:06:43.308Z,8.40
2023-02-21T22:09:15.318Z,8.40
2023-02-21T22:11:44.292Z,8.40
2023-02-21T22:14:12.780Z,8.30
2023-02-21T22:16:43.111Z,8.30
2023-02-21T22:19:10.342Z,8.40
2023-02-21T22:21:37.282Z,8.40
2023-02-21T22:24:05.500Z,8.30
2023-02-21T22:26:32.411Z,8.40
2023-02-21T22:28:59.423Z,8.30
2023-02-21T22:31:27.207Z,8.30
2023-02-21T22:33:59.165Z,8.30
2023-02-21T22:36:26.521Z,8.30
2023-02-21T22:38:55.982Z,8.30
2023-02-21T22:41:28.358Z,8.30
2023-02-21T22:43:55.766Z,8.40
2023-02-21T22:46:25.192Z,8.30
2023-02-21T22:48:52.938Z,8.30
2023-02-21T22:51:25.826Z,8.30
2023-02-21T22:53:52.740Z,8.30
2023-02-21T22:56:25.486Z,8.30
2023-02-21T22:58:54.984Z,8.30
2023-02-21T23:01:26.348Z,8.30
2023-02-21T23:03:54.672Z,8.20
2023-02-21T23:06:21.447Z,8.30
2023-02-21T23:08:49.497Z,8.20
2023-02-21T23:11:25.981Z,8.20
2023-02-21T23:13:52.834Z,8.20
2023-02-21T23:16:21.897Z,8.20
2023-02-21T23:18:48.753Z,8.20
2023-02-21T23:21:22.781Z,8.20
2023-02-21T23:23:50.832Z,8.20
2023-02-21T23:26:21.380Z,8.20
2023-02-21T23:28:49.500Z,8.20
2023-02-21T23:31:18.922Z,8.20
2023-02-21T23:33:49.422Z,8.10
2023-02-21T23:36:22.666Z,8.20
2023-02-21T23:38:50.699Z,8.20
2023-02-21T23:41:18.578Z,8.10
2023-02-21T23:43:46.470Z,8.20
2023-02-21T23:46:20.020Z,8.20
2023-02-21T23:48:46.929Z,8.10
2023-02-21T23:51:14.096Z,8.10
2023-02-21T23:53:41.681Z,8.00
2023-02-21T23:56:13.038Z,8.10
2023-02-21T23:58:44.276Z,8.00
